Time;durP1;ratioP1;P1;durP2;ratioP2;P2;SDS_P1;SDS_P2;PMS_P1;PMS_P2;Temp;Humidity;BMP_temperature;BMP_pressure;BME280_temperature;BME280_humidity;BME280_pressure;Samples;Min_cycle;Max_cycle;Signal;HPM_P1;HPM_P2
2021/10/18 00:02:13;;;;;;;12.65;3.50;;;;;;;8.52;100.00;99451.38;5057576;28;20159;-65
2021/10/18 00:04:57;;;;;;;12.98;3.72;;;;;;;8.48;100.00;99453.19;5064787;28;20047;-65
2021/10/18 00:07:44;;;;;;;10.82;4.25;;;;;;;8.50;100.00;99454.03;5064765;28;20089;-66
2021/10/18 00:10:29;;;;;;;8.70;3.83;;;;;;;8.45;100.00;99455.00;5058140;28;20079;-66
2021/10/18 00:13:14;;;;;;;11.15;3.55;;;;;;;8.41;100.00;99450.66;5065661;28;20058;-66
2021/10/18 00:16:01;;;;;;;7.85;3.65;;;;;;;8.38;100.00;99448.94;5051754;28;20094;-66
2021/10/18 00:18:46;;;;;;;10.80;4.05;;;;;;;8.50;100.00;99447.84;5065057;28;20051;-71
2021/10/18 00:21:31;;;;;;;7.35;3.55;;;;;;;8.55;100.00;99444.25;5045278;28;20076;-70
2021/10/18 00:24:15;;;;;;;7.05;3.38;;;;;;;8.59;100.00;99445.09;5057094;28;20059;-69
2021/10/18 00:27:02;;;;;;;8.52;3.35;;;;;;;8.78;100.00;99435.91;5066754;28;20464;-68
2021/10/18 00:29:49;;;;;;;6.43;2.70;;;;;;;8.97;100.00;99432.03;5049778;28;20106;-67
2021/10/18 00:32:34;;;;;;;6.78;3.03;;;;;;;9.12;100.00;99440.56;5066223;28;20059;-67
2021/10/18 00:35:19;;;;;;;7.47;2.58;;;;;;;9.03;100.00;99439.88;5052205;28;20075;-68
2021/10/18 00:38:03;;;;;;;8.32;3.20;;;;;;;9.08;100.00;99440.63;5047251;28;20044;-68
2021/10/18 00:40:52;;;;;;;8.25;3.15;;;;;;;8.98;100.00;99426.72;5063583;28;20048;-67
2021/10/18 00:43:39;;;;;;;6.25;2.85;;;;;;;9.15;100.00;99419.31;5051394;28;20275;-66
2021/10/18 00:46:24;;;;;;;5.40;2.38;;;;;;;9.08;100.00;99423.00;5049909;28;20101;-67
2021/10/18 00:49:10;;;;;;;6.68;2.65;;;;;;;8.81;100.00;99412.94;5039681;28;20047;-66
2021/10/18 00:51:57;;;;;;;6.95;2.70;;;;;;;8.77;100.00;99405.09;5061383;28;20095;-69
2021/10/18 00:54:42;;;;;;;6.70;2.85;;;;;;;8.90;100.00;99422.47;5044743;28;20526;-68
2021/10/18 00:57:27;;;;;;;7.25;2.88;;;;;;;8.87;100.00;99415.47;5051911;28;20531;-68
2021/10/18 01:00:12;;;;;;;6.65;2.65;;;;;;;8.97;100.00;99411.75;5063830;28;20138;-68
2021/10/18 01:03:00;;;;;;;9.27;2.83;;;;;;;9.06;100.00;99406.28;5060767;28;20539;-67
2021/10/18 01:05:44;;;;;;;7.20;2.90;;;;;;;9.11;100.00;99404.41;5062026;28;20140;-69
2021/10/18 01:08:29;;;;;;;8.55;3.22;;;;;;;9.15;100.00;99405.25;5057087;28;20090;-66
2021/10/18 01:11:14;;;;;;;6.30;2.72;;;;;;;9.06;100.00;99395.69;5062484;28;20051;-65
2021/10/18 01:13:58;;;;;;;6.75;2.80;;;;;;;9.25;100.00;99398.84;5062464;28;20113;-66
2021/10/18 01:16:42;;;;;;;6.32;2.50;;;;;;;9.15;100.00;99398.16;5062763;28;20121;-67
2021/10/18 01:19:27;;;;;;;6.22;2.97;;;;;;;9.12;100.00;99400.00;5064710;28;20074;-65
2021/10/18 01:22:11;;;;;;;6.78;3.33;;;;;;;9.01;100.00;99399.34;5046014;28;20764;-68
2021/10/18 01:24:56;;;;;;;4.88;2.55;;;;;;;8.97;100.00;99398.53;5068728;28;20106;-67
2021/10/18 01:27:40;;;;;;;9.52;3.38;;;;;;;8.82;100.00;99396.19;5049642;28;20094;-67
2021/10/18 01:30:26;;;;;;;6.22;2.95;;;;;;;8.83;100.00;99391.78;5061484;28;20182;-67
2021/10/18 01:33:11;;;;;;;10.10;2.92;;;;;;;8.68;100.00;99389.41;5064798;28;20052;-68
2021/10/18 01:35:55;;;;;;;5.55;2.42;;;;;;;8.74;100.00;99392.81;5061785;28;20087;-67
2021/10/18 01:38:40;;;;;;;6.30;3.08;;;;;;;8.81;100.00;99378.59;5066358;28;20078;-65
2021/10/18 01:41:24;;;;;;;6.80;2.80;;;;;;;9.01;100.00;99387.00;5062901;28;20059;-67
2021/10/18 01:44:09;;;;;;;7.43;3.22;;;;;;;9.07;100.00;99391.31;5057768;28;20194;-66
2021/10/18 01:46:53;;;;;;;7.80;3.00;;;;;;;9.08;100.00;99390.38;5056988;28;20094;-64
2021/10/18 01:49:37;;;;;;;8.13;3.13;;;;;;;9.03;100.00;99386.97;5029926;28;20106;-68
2021/10/18 01:52:26;;;;;;;7.70;3.17;;;;;;;8.76;100.00;99383.09;5060423;28;20114;-66
2021/10/18 01:55:13;;;;;;;5.18;3.00;;;;;;;8.80;100.00;99389.19;5061619;28;20428;-67
2021/10/18 01:57:57;;;;;;;11.32;3.25;;;;;;;8.70;100.00;99382.31;5063975;28;20051;-64
2021/10/18 02:00:43;;;;;;;6.57;2.70;;;;;;;8.91;100.00;99385.41;5065144;28;20064;-66
2021/10/18 02:03:28;;;;;;;8.23;3.40;;;;;;;8.97;100.00;99380.03;5045969;28;20103;-69
2021/10/18 02:06:13;;;;;;;8.40;3.10;;;;;;;8.98;100.00;99371.19;5049777;28;20051;-67
2021/10/18 02:08:58;;;;;;;6.25;2.88;;;;;;;8.86;100.00;99378.47;5064504;28;20535;-66
2021/10/18 02:11:42;;;;;;;8.65;3.03;;;;;;;8.69;100.00;99373.53;5063499;28;20047;-69
2021/10/18 02:14:26;;;;;;;9.13;3.10;;;;;;;8.65;100.00;99379.78;5070828;28;20096;-67
2021/10/18 02:17:11;;;;;;;11.40;3.00;;;;;;;8.67;100.00;99372.66;5074852;28;20157;-67
2021/10/18 02:19:56;;;;;;;8.95;3.20;;;;;;;8.80;100.00;99371.56;5064439;28;20066;-66
2021/10/18 02:22:42;;;;;;;7.95;3.30;;;;;;;8.89;100.00;99374.03;5045948;28;20067;-68
2021/10/18 02:25:26;;;;;;;5.97;2.90;;;;;;;8.83;100.00;99363.56;5051220;28;20063;-67
2021/10/18 02:28:11;;;;;;;8.02;3.03;;;;;;;8.77;100.00;99355.75;5049951;28;20099;-69
2021/10/18 02:30:56;;;;;;;8.50;3.28;;;;;;;8.72;100.00;99356.75;5067333;28;20060;-68
2021/10/18 02:33:40;;;;;;;8.48;2.95;;;;;;;8.91;100.00;99360.78;5066849;28;20420;-68
2021/10/18 02:36:24;;;;;;;11.98;3.50;;;;;;;8.84;100.00;99359.16;5068792;28;20106;-69
2021/10/18 02:39:09;;;;;;;7.90;3.30;;;;;;;8.96;100.00;99349.22;5068346;28;20106;-67
2021/10/18 02:41:53;;;;;;;7.78;3.08;;;;;;;8.98;100.00;99352.69;5068699;28;20190;-67
2021/10/18 02:44:37;;;;;;;7.28;2.90;;;;;;;8.88;100.00;99342.31;5067309;28;20515;-68
2021/10/18 02:47:22;;;;;;;6.53;2.90;;;;;;;9.06;100.00;99347.25;5067892;28;20047;-73
2021/10/18 02:50:07;;;;;;;9.52;3.17;;;;;;;9.00;100.00;99340.31;5067896;28;20094;-69
2021/10/18 02:52:51;;;;;;;8.52;3.40;;;;;;;8.87;100.00;99335.31;5065967;28;20086;-70
2021/10/18 02:55:36;;;;;;;10.77;3.05;;;;;;;8.78;100.00;99346.91;5062677;28;20126;-67
2021/10/18 02:58:20;;;;;;;11.52;3.13;;;;;;;8.76;100.00;99345.22;5065519;28;20052;-68
2021/10/18 03:01:05;;;;;;;5.20;2.90;;;;;;;8.76;100.00;99339.91;5068409;28;20089;-67
2021/10/18 03:03:49;;;;;;;5.93;2.63;;;;;;;8.84;100.00;99330.06;5065479;28;20066;-66
2021/10/18 03:06:33;;;;;;;6.43;2.95;;;;;;;8.99;100.00;99327.97;5060735;28;20071;-71
2021/10/18 03:09:18;;;;;;;5.63;2.60;;;;;;;9.12;100.00;99321.53;5067860;28;20055;-71
2021/10/18 03:12:03;;;;;;;10.38;3.30;;;;;;;8.77;100.00;99302.00;5044506;28;20055;-64
2021/10/18 03:14:47;;;;;;;7.88;3.17;;;;;;;8.80;100.00;99312.53;5061042;28;20070;-65
2021/10/18 03:17:32;;;;;;;6.65;3.33;;;;;;;8.51;100.00;99304.31;5066504;28;20056;-69
2021/10/18 03:20:16;;;;;;;8.77;3.20;;;;;;;8.59;100.00;99302.41;5067824;28;20142;-62
2021/10/18 03:23:01;;;;;;;9.30;3.13;;;;;;;8.40;100.00;99301.88;5064317;28;20401;-65
2021/10/18 03:25:48;;;;;;;6.97;3.10;;;;;;;8.34;100.00;99296.69;5057994;28;20055;-70
2021/10/18 03:28:33;;;;;;;9.30;3.58;;;;;;;8.25;100.00;99298.63;5067487;28;20182;-66
2021/10/18 03:31:18;;;;;;;9.07;3.47;;;;;;;8.12;100.00;99289.16;5064398;28;20048;-63
2021/10/18 03:34:05;;;;;;;8.02;3.15;;;;;;;7.92;100.00;99284.22;5079858;28;20800;-68
2021/10/18 03:36:50;;;;;;;8.27;3.05;;;;;;;7.98;100.00;99283.25;5066078;28;20786;-66
2021/10/18 03:39:36;;;;;;;6.85;2.42;;;;;;;7.84;100.00;99282.63;5056078;28;20432;-66
2021/10/18 03:42:20;;;;;;;9.23;3.17;;;;;;;7.80;100.00;99287.06;5053255;28;20591;-66
2021/10/18 03:45:08;;;;;;;6.85;2.65;;;;;;;7.70;100.00;99276.69;5059611;28;20044;-69
2021/10/18 03:47:54;;;;;;;7.43;3.28;;;;;;;7.53;100.00;99279.63;5055830;28;20477;-65
2021/10/18 03:50:42;;;;;;;6.90;2.95;;;;;;;7.46;100.00;99270.06;5046937;28;20066;-63
2021/10/18 03:53:26;;;;;;;10.93;3.75;;;;;;;7.39;100.00;99255.22;5059098;28;20140;-66
2021/10/18 03:56:11;;;;;;;13.27;3.28;;;;;;;7.28;100.00;99265.03;5056819;28;20182;-70
2021/10/18 03:58:55;;;;;;;6.28;3.13;;;;;;;7.20;100.00;99259.00;5058374;28;20071;-66
2021/10/18 04:01:41;;;;;;;6.78;3.13;;;;;;;7.18;100.00;99252.03;5075344;28;20042;-66
2021/10/18 04:04:26;;;;;;;5.35;3.00;;;;;;;7.12;100.00;99246.84;5077633;28;20531;-66
2021/10/18 04:07:10;;;;;;;6.25;2.67;;;;;;;7.14;100.00;99248.56;5067578;28;20059;-66
2021/10/18 04:09:55;;;;;;;9.07;2.55;;;;;;;7.04;100.00;99248.72;5063224;28;20051;-64
2021/10/18 04:12:39;;;;;;;5.93;2.53;;;;;;;6.95;100.00;99257.63;5047454;28;20055;-65
2021/10/18 04:15:24;;;;;;;7.40;2.97;;;;;;;6.96;100.00;99248.81;5065036;28;20044;-64
2021/10/18 04:18:08;;;;;;;8.05;3.03;;;;;;;6.94;100.00;99250.63;5066405;28;20059;-68
2021/10/18 04:20:53;;;;;;;8.13;2.88;;;;;;;6.92;100.00;99251.53;5054358;28;20046;-69
2021/10/18 04:23:37;;;;;;;8.20;3.13;;;;;;;6.89;100.00;99254.22;5061612;28;20051;-76
2021/10/18 04:26:22;;;;;;;7.40;2.75;;;;;;;6.86;100.00;99247.22;5062386;28;20090;-62
2021/10/18 04:29:07;;;;;;;10.98;3.25;;;;;;;6.83;100.00;99241.09;5063134;28;20128;-65
2021/10/18 04:31:57;;;;;;;6.55;2.90;;;;;;;6.97;100.00;99247.06;5064938;28;20052;-66
2021/10/18 04:34:43;;;;;;;8.70;3.45;;;;;;;7.09;100.00;99247.78;5051214;28;20087;-66
2021/10/18 04:37:28;;;;;;;7.55;3.20;;;;;;;7.03;100.00;99234.66;5044772;28;20478;-71
2021/10/18 04:40:15;;;;;;;8.30;3.15;;;;;;;7.03;100.00;99250.50;5046672;28;20059;-66
2021/10/18 04:43:00;;;;;;;8.88;3.55;;;;;;;7.01;100.00;99228.53;5062405;28;20047;-79
2021/10/18 04:45:44;;;;;;;5.60;3.33;;;;;;;7.12;100.00;99229.25;5065819;28;20634;-73
2021/10/18 04:48:29;;;;;;;6.75;3.25;;;;;;;7.16;100.00;99227.47;5063483;28;20055;-65
2021/10/18 04:51:13;;;;;;;11.43;3.72;;;;;;;7.18;100.00;99231.81;5066167;28;20058;-66
2021/10/18 04:53:58;;;;;;;8.20;3.90;;;;;;;7.26;100.00;99224.66;5055671;28;20562;-66
2021/10/18 04:56:43;;;;;;;6.97;3.78;;;;;;;7.31;100.00;99233.38;5065200;28;20048;-76
2021/10/18 04:59:28;;;;;;;7.20;3.40;;;;;;;7.33;100.00;99222.78;5063822;28;20051;-66
2021/10/18 05:02:12;;;;;;;9.98;3.40;;;;;;;7.40;100.00;99235.00;5063825;28;20148;-69
2021/10/18 05:04:57;;;;;;;7.32;3.25;;;;;;;7.40;100.00;99238.47;5065720;28;20540;-67
2021/10/18 05:07:42;;;;;;;8.10;3.70;;;;;;;7.49;100.00;99226.91;5064978;28;20153;-69
2021/10/18 05:10:26;;;;;;;10.30;3.42;;;;;;;7.77;100.00;99242.28;5063322;28;20086;-68
2021/10/18 05:13:15;;;;;;;9.65;3.80;;;;;;;7.49;100.00;99242.75;5066533;28;20048;-68
2021/10/18 05:16:00;;;;;;;9.48;4.00;;;;;;;7.54;100.00;99238.25;5061427;28;20052;-71
2021/10/18 05:18:44;;;;;;;10.52;3.72;;;;;;;7.67;100.00;99232.75;5065535;28;20105;-68
2021/10/18 05:21:29;;;;;;;9.48;4.13;;;;;;;7.74;100.00;99242.31;5058692;28;20075;-66
2021/10/18 05:24:14;;;;;;;12.63;4.53;;;;;;;7.71;100.00;99239.72;5045865;28;20110;-68
2021/10/18 05:26:59;;;;;;;11.45;4.15;;;;;;;7.99;100.00;99232.22;5063864;28;20051;-65
2021/10/18 05:29:43;;;;;;;8.25;3.95;;;;;;;7.84;100.00;99240.41;5060853;28;20416;-67
2021/10/18 05:32:28;;;;;;;11.80;4.70;;;;;;;7.85;100.00;99243.00;5066016;28;20573;-66
2021/10/18 05:35:14;;;;;;;10.77;4.80;;;;;;;7.94;100.00;99245.47;5052334;28;20088;-69
2021/10/18 05:37:59;;;;;;;10.68;4.38;;;;;;;7.98;100.00;99233.09;5045846;28;20082;-66
2021/10/18 05:40:44;;;;;;;11.20;4.75;;;;;;;8.13;100.00;99246.00;5060888;28;20055;-68
2021/10/18 05:43:28;;;;;;;8.43;4.55;;;;;;;8.21;100.00;99238.84;5064038;28;20268;-69
2021/10/18 05:46:16;;;;;;;11.05;4.25;;;;;;;8.23;100.00;99237.91;5064050;28;20055;-68
2021/10/18 05:49:03;;;;;;;8.18;4.45;;;;;;;8.27;100.00;99231.66;5061907;28;20044;-64
2021/10/18 05:51:47;;;;;;;11.48;4.50;;;;;;;8.19;100.00;99241.47;5049155;28;20048;-65
2021/10/18 05:54:32;;;;;;;;;;;;;;;7.98;100.00;99233.09;5070621;28;20047;-67
2021/10/18 05:57:18;;;;;;;10.88;4.38;;;;;;;8.05;100.00;99235.59;5047395;28;19923;-68
2021/10/18 06:00:03;;;;;;;9.20;4.28;;;;;;;8.05;100.00;99232.97;5056125;28;20051;-67
2021/10/18 06:02:56;;;;;;;6.90;4.15;;;;;;;8.14;100.00;99234.53;5080059;28;20070;-68
2021/10/18 06:05:46;;;;;;;8.70;3.75;;;;;;;8.09;100.00;99224.09;5070020;28;20141;-66
2021/10/18 06:08:30;;;;;;;7.05;4.00;;;;;;;8.05;100.00;99224.16;5042084;28;20056;-68
2021/10/18 06:11:16;;;;;;;9.68;4.22;;;;;;;8.27;100.00;99212.34;5067642;28;20543;-67
2021/10/18 06:14:00;;;;;;;11.20;4.03;;;;;;;8.47;100.00;99218.94;5066467;28;20222;-68
2021/10/18 06:16:45;;;;;;;9.95;4.07;;;;;;;8.37;100.00;99213.88;5067733;28;20055;-69
2021/10/18 06:19:33;;;;;;;11.65;4.53;;;;;;;8.51;100.00;99228.53;5068481;28;20522;-66
2021/10/18 06:22:18;;;;;;;15.52;4.55;;;;;;;8.41;100.00;99219.06;5066673;28;20466;-70
2021/10/18 06:25:02;;;;;;;7.32;3.90;;;;;;;8.52;100.00;99222.38;5080501;28;20052;-65
2021/10/18 06:27:47;;;;;;;9.32;4.40;;;;;;;8.48;100.00;99219.81;5066147;28;20051;-66
2021/10/18 06:30:31;;;;;;;8.18;4.30;;;;;;;8.43;100.00;99222.53;5068192;28;20424;-65
2021/10/18 06:33:19;;;;;;;9.65;4.35;;;;;;;8.44;100.00;99223.44;5047532;28;20047;-64
2021/10/18 06:36:03;;;;;;;10.73;4.68;;;;;;;8.43;100.00;99217.25;5049134;28;20076;-65
2021/10/18 06:38:48;;;;;;;;;;;;;;;8.51;100.00;99214.47;5060544;28;20102;-69
2021/10/18 06:41:32;;;;;;;15.32;5.18;;;;;;;8.48;100.00;99220.69;5048882;28;19967;-71
2021/10/18 06:44:17;;;;;;;5.78;4.07;;;;;;;8.49;100.00;99210.97;5061893;28;20040;-73
2021/10/18 06:47:02;;;;;;;9.00;4.13;;;;;;;8.58;100.00;99216.94;5066463;28;20087;-76
2021/10/18 06:49:50;;;;;;;13.30;4.93;;;;;;;8.64;100.00;99219.47;5067664;28;20198;-70
2021/10/18 06:52:37;;;;;;;10.30;4.95;;;;;;;8.52;100.00;99217.09;5067682;28;20754;-68
2021/10/18 06:55:24;;;;;;;9.32;4.40;;;;;;;8.51;100.00;99211.84;5068073;28;20060;-70
2021/10/18 06:58:10;;;;;;;9.02;4.70;;;;;;;8.54;100.00;99204.72;5066745;28;20062;-69
2021/10/18 07:00:55;;;;;;;7.65;4.60;;;;;;;8.62;100.00;99196.59;5063449;28;20071;-68
2021/10/18 07:03:40;;;;;;;10.13;4.25;;;;;;;8.56;100.00;99200.28;5067550;28;20058;-69
2021/10/18 07:06:24;;;;;;;9.95;4.22;;;;;;;8.59;100.00;99208.13;5067393;28;20550;-68
2021/10/18 07:09:08;;;;;;;8.98;4.53;;;;;;;8.57;100.00;99207.28;5067786;28;20102;-66
2021/10/18 07:11:54;;;;;;;12.10;5.10;;;;;;;8.57;100.00;99204.66;5075243;28;20052;-68
2021/10/18 07:14:39;;;;;;;9.20;4.47;;;;;;;8.49;100.00;99208.34;5060113;28;20070;-70
2021/10/18 07:17:26;;;;;;;8.40;5.00;;;;;;;8.37;100.00;99196.28;5058335;28;20099;-68
2021/10/18 07:20:11;;;;;;;17.42;10.38;;;;;;;8.41;100.00;99197.94;5054474;28;20051;-66
2021/10/18 07:23:01;;;;;;;9.88;5.20;;;;;;;8.57;100.00;99198.47;5059469;28;20105;-67
2021/10/18 07:25:48;;;;;;;8.55;4.60;;;;;;;8.68;100.00;99188.56;5056738;28;20101;-68
2021/10/18 07:28:37;;;;;;;13.90;4.88;;;;;;;8.60;100.00;99204.59;5057078;28;20982;-68
2021/10/18 07:31:22;;;;;;;12.07;4.85;;;;;;;8.82;100.00;99202.31;5059796;28;20535;-68
2021/10/18 07:34:12;;;;;;;8.85;4.43;;;;;;;8.86;100.00;99210.16;5058955;28;20040;-68
2021/10/18 07:36:58;;;;;;;11.13;4.82;;;;;;;8.71;100.00;99207.00;5057051;28;20183;-69
2021/10/18 07:39:46;;;;;;;14.10;5.18;;;;;;;8.84;100.00;99204.06;5047148;28;20109;-68
2021/10/18 07:42:31;;;;;;;12.57;5.47;;;;;;;8.74;100.00;99213.06;5058830;28;20059;-71
2021/10/18 07:45:15;;;;;;;8.43;5.32;;;;;;;8.74;100.00;99212.19;5054139;28;20047;-69
2021/10/18 07:48:00;;;;;;;11.43;5.40;;;;;;;8.58;100.00;99216.94;5055190;28;20079;-69
2021/10/18 07:50:44;;;;;;;12.23;5.15;;;;;;;8.33;100.00;99222.75;5059997;28;20509;-69
2021/10/18 07:53:29;;;;;;;9.75;5.35;;;;;;;8.43;100.00;99227.81;5053002;28;20528;-68
2021/10/18 07:56:13;;;;;;;;;;;;;;;8.42;100.00;99255.16;5059670;28;20122;-70
2021/10/18 07:58:59;;;;;;;6.07;1.98;;;;;;;8.09;100.00;99274.25;5055661;28;19969;-69
2021/10/18 08:01:43;;;;;;;2.92;1.63;;;;;;;7.99;100.00;99259.47;5055768;28;20051;-71
2021/10/18 08:04:28;;;;;;;3.78;1.65;;;;;;;7.79;100.00;99276.56;5060200;28;20126;-67
2021/10/18 08:07:12;;;;;;;2.75;1.20;;;;;;;7.73;100.00;99281.91;5054339;28;20532;-68
2021/10/18 08:09:58;;;;;;;1.63;1.20;;;;;;;7.68;100.00;99273.22;5060433;28;20052;-67
2021/10/18 08:12:42;;;;;;;3.25;1.30;;;;;;;7.84;100.00;99245.69;5062940;28;20048;-67
2021/10/18 08:15:34;;;;;;;2.28;1.42;;;;;;;8.10;100.00;99272.47;5059911;28;20051;-67
2021/10/18 08:18:21;;;;;;;3.05;1.60;;;;;;;8.25;100.00;99264.31;5057496;28;20106;-67
2021/10/18 08:21:06;;;;;;;2.80;1.70;;;;;;;8.45;100.00;99281.53;5067475;28;20059;-68
2021/10/18 08:23:51;;;;;;;3.20;1.58;;;;;;;8.32;100.00;99294.97;5055790;28;20584;-68
2021/10/18 08:26:35;;;;;;;3.63;1.73;;;;;;;8.04;100.00;99291.06;5057731;28;20149;-67
2021/10/18 08:29:20;;;;;;;2.85;1.90;;;;;;;8.18;100.00;99291.69;5058235;28;20062;-67
2021/10/18 08:32:05;;;;;;;2.33;1.70;;;;;;;8.10;100.00;99294.47;5061557;28;20047;-67
2021/10/18 08:34:51;;;;;;;2.22;1.60;;;;;;;8.16;100.00;99307.53;5068476;28;20102;-70
2021/10/18 08:41:04;;;;;;;2.50;1.70;;;;;;;8.04;100.00;99315.69;5060266;28;20447;-68
2021/10/18 08:46:42;;;;;;;2.45;0.90;;;;;;;8.15;100.00;99316.38;5053984;28;20117;-70
2021/10/18 08:49:26;;;;;;;2.40;0.88;;;;;;;8.42;100.00;99320.31;5056001;28;20056;-66
2021/10/18 08:52:11;;;;;;;3.30;1.00;;;;;;;8.32;100.00;99318.75;5054737;28;20052;-66
2021/10/18 08:54:56;;;;;;;2.60;0.63;;;;;;;8.49;100.00;99317.53;5054178;28;20110;-66
2021/10/18 08:57:40;;;;;;;2.38;0.98;;;;;;;8.61;100.00;99325.25;5057431;28;20059;-66
2021/10/18 09:00:47;;;;;;;2.78;1.02;;;;;;;8.69;100.00;99320.69;5055393;28;20055;-67
2021/10/18 09:03:34;;;;;;;1.55;0.90;;;;;;;8.98;100.00;99322.75;5046359;28;20531;-68
2021/10/18 09:06:24;;;;;;;5.68;1.00;;;;;;;9.61;100.00;99323.94;5068255;28;20062;-70
2021/10/18 09:09:08;;;;;;;1.33;0.93;;;;;;;9.91;100.00;99311.75;5051896;28;20550;-71
2021/10/18 09:11:58;;;;;;;1.30;0.98;;;;;;;9.95;100.00;99319.59;5059883;28;20048;-71
2021/10/18 09:14:43;;;;;;;2.47;1.30;;;;;;;9.97;100.00;99327.50;5055661;28;20162;-70
2021/10/18 09:17:33;;;;;;;2.47;1.02;;;;;;;9.75;100.00;99327.16;5084155;28;20054;-70
2021/10/18 09:20:29;;;;;;;4.53;1.38;;;;;;;9.67;100.00;99322.94;5066683;28;20071;-70
2021/10/18 09:23:27;;;;;;;4.40;1.63;;;;;;;9.99;100.00;99329.19;5061909;28;20099;-71
2021/10/18 09:26:16;;;;;;;1.98;1.17;;;;;;;10.32;100.00;99325.72;5062250;28;20071;-70
2021/10/18 09:29:08;;;;;;;2.45;1.00;;;;;;;9.95;100.00;99330.19;5053687;28;20916;-67
2021/10/18 09:32:04;;;;;;;8.57;1.20;;;;;;;11.03;100.00;99318.47;5078852;28;20043;-69
2021/10/18 09:34:49;;;;;;;4.55;1.02;;;;;;;12.64;100.00;99332.69;5077021;28;20587;-71
2021/10/18 09:37:45;;;;;;;2.60;1.00;;;;;;;14.91;93.35;99324.41;5070012;28;20058;-68
2021/10/18 09:40:33;;;;;;;3.88;1.38;;;;;;;15.92;77.49;99330.38;5048611;28;20059;-69
2021/10/18 09:46:22;;;;;;;1.75;1.00;;;;;;;15.73;72.60;99335.75;5061035;28;20462;-70
2021/10/18 10:52:11;;;;;;;1.80;0.90;;;;;;;16.44;46.82;99349.16;5060630;28;20202;-63
2021/10/18 10:54:56;;;;;;;1.63;0.70;;;;;;;15.83;48.45;99353.06;5051937;28;20043;-66
2021/10/18 10:57:42;;;;;;;1.88;0.75;;;;;;;14.60;50.37;99358.69;5082824;28;20051;-64
2021/10/18 11:00:36;;;;;;;1.88;0.90;;;;;;;13.58;54.26;99349.59;5071559;28;20055;-69
2021/10/18 11:03:21;;;;;;;2.05;0.88;;;;;;;12.67;56.84;99340.56;5059137;28;20099;-72
2021/10/18 11:06:08;;;;;;;1.83;0.98;;;;;;;12.59;59.26;99354.13;5058515;28;20051;-71
2021/10/18 11:08:54;;;;;;;1.35;0.93;;;;;;;12.06;60.67;99354.19;5059051;28;20389;-73
2021/10/18 11:11:40;;;;;;;2.40;1.48;;;;;;;13.61;59.45;99362.81;5055938;28;20106;-69
2021/10/18 11:14:25;;;;;;;2.53;1.00;;;;;;;15.27;54.02;99344.13;5060301;28;20056;-67
2021/10/18 11:17:10;;;;;;;2.60;1.20;;;;;;;14.56;53.71;99354.44;5055350;28;20064;-69
2021/10/18 11:19:57;;;;;;;1.88;1.10;;;;;;;14.85;53.87;99355.84;5058213;28;20059;-66
2021/10/18 11:22:56;;;;;;;1.40;0.73;;;;;;;14.89;50.75;99363.66;5058433;28;20574;-67
2021/10/18 11:25:45;;;;;;;2.13;0.43;;;;;;;14.29;49.23;99344.06;5057888;28;20067;-64
2021/10/18 11:28:31;;;;;;;2.22;0.60;;;;;;;14.14;50.10;99347.31;5059251;28;20051;-65
2021/10/18 11:31:17;;;;;;;2.17;0.60;;;;;;;13.94;50.42;99364.97;5064407;28;20094;-74
2021/10/18 11:34:11;;;;;;;1.30;0.40;;;;;;;13.94;51.06;99361.47;5058877;28;20059;-66
2021/10/18 11:36:56;;;;;;;1.80;0.60;;;;;;;13.83;51.60;99361.03;5060511;28;20117;-64
2021/10/18 11:39:41;;;;;;;0.60;0.50;;;;;;;14.53;50.83;99362.59;5059781;28;20054;-64
2021/10/18 11:42:26;;;;;;;2.95;0.70;;;;;;;15.04;49.64;99355.00;5060208;28;20869;-65
2021/10/18 11:45:16;;;;;;;1.35;0.77;;;;;;;15.36;48.14;99365.13;5073146;28;20082;-73
2021/10/18 11:48:20;;;;;;;2.97;0.57;;;;;;;15.32;47.55;99359.94;5059252;28;20059;-65
2021/10/18 11:51:06;;;;;;;1.15;0.50;;;;;;;15.05;46.89;99363.84;5045206;28;20051;-67
2021/10/18 11:53:54;;;;;;;0.60;0.50;;;;;;;14.28;46.71;99347.66;5071738;28;20047;-66
2021/10/18 11:56:39;;;;;;;1.60;0.60;;;;;;;14.12;48.43;99349.19;5070485;28;20047;-65
2021/10/18 11:59:25;;;;;;;;;;;;;;;14.08;49.97;99368.91;5071598;28;20725;-67
2021/10/18 12:02:23;;;;;;;2.40;0.70;;;;;;;13.50;49.91;99357.88;5071715;28;19982;-66
2021/10/18 12:05:10;;;;;;;5.60;2.55;;;;;;;13.32;50.94;99376.34;5069781;28;20051;-64
2021/10/18 12:07:56;;;;;;;6.00;2.22;;;;;;;13.17;51.07;99371.56;5057183;28;20047;-64
2021/10/18 12:10:45;;;;;;;3.92;1.38;;;;;;;12.89;51.69;99358.38;5058740;28;20052;-64
2021/10/18 12:13:33;;;;;;;10.13;3.10;;;;;;;12.76;52.96;99383.69;5058426;28;20044;-69
2021/10/18 12:16:25;;;;;;;5.57;1.58;;;;;;;12.42;53.22;99372.44;5059895;28;20105;-68
2021/10/18 12:19:13;;;;;;;2.92;1.20;;;;;;;12.58;54.13;99371.00;5057156;28;20055;-69
2021/10/18 12:22:07;;;;;;;2.95;1.02;;;;;;;12.85;53.71;99374.50;5056680;28;20089;-65
2021/10/18 12:25:08;;;;;;;3.05;1.27;;;;;;;12.41;53.95;99369.84;5067650;28;20093;-64
2021/10/18 12:27:54;;;;;;;2.72;1.23;;;;;;;12.34;52.78;99350.56;5056112;28;20067;-65
2021/10/18 12:30:41;;;;;;;4.32;1.40;;;;;;;12.70;52.16;99370.56;5056231;28;20427;-67
2021/10/18 12:33:39;;;;;;;5.30;1.73;;;;;;;12.37;51.16;99341.59;5054370;28;20055;-65
2021/10/18 12:36:24;;;;;;;4.25;1.02;;;;;;;11.83;51.38;99357.56;5056998;28;20147;-62
2021/10/18 12:39:09;;;;;;;2.08;0.98;;;;;;;11.52;51.88;99356.75;5057398;28;20083;-64
2021/10/18 12:41:53;;;;;;;4.55;1.80;;;;;;;11.02;53.73;99352.06;5056742;28;20052;-73
2021/10/18 12:44:41;;;;;;;5.38;2.05;;;;;;;10.74;56.09;99359.06;5056411;28;20052;-67
2021/10/18 12:47:25;;;;;;;3.50;1.20;;;;;;;11.06;56.11;99360.81;5055978;28;20490;-65
2021/10/18 12:50:20;;;;;;;6.20;1.85;;;;;;;11.22;55.55;99346.19;5056457;28;20055;-68
2021/10/18 12:53:12;;;;;;;;;;;;;;;11.24;54.82;99350.53;5071429;28;20848;-61
2021/10/18 12:56:00;;;;;;;2.75;1.15;;;;;;;11.22;53.99;99348.84;5075108;28;19965;-65
2021/10/18 12:58:48;;;;;;;4.20;1.30;;;;;;;11.35;52.93;99358.19;5054228;28;20083;-67
2021/10/18 13:01:32;;;;;;;1.20;0.65;;;;;;;11.21;52.53;99350.63;5059260;28;20511;-66
2021/10/18 13:04:19;;;;;;;;;;;;;;;11.45;53.60;99360.53;5062552;28;20412;-75
2021/10/18 13:07:03;;;;;;;8.98;2.63;;;;;;;11.47;53.64;99366.63;5056456;28;19969;-65
2021/10/18 13:09:48;;;;;;;4.03;2.03;;;;;;;11.32;53.95;99355.63;5046203;28;20574;-66
2021/10/18 13:12:38;;;;;;;5.65;1.05;;;;;;;11.50;54.27;99349.75;5053652;28;20465;-65
2021/10/18 13:15:24;;;;;;;6.53;1.58;;;;;;;11.65;54.19;99362.59;5067434;28;21197;-66
2021/10/18 13:18:10;;;;;;;7.88;1.77;;;;;;;11.58;54.48;99363.66;5062925;28;20417;-65
2021/10/18 13:20:58;;;;;;;2.80;1.10;;;;;;;11.25;55.95;99354.94;5065124;28;20051;-70
2021/10/18 13:23:43;;;;;;;6.03;1.70;;;;;;;11.49;57.20;99363.94;5044183;28;20060;-67
2021/10/18 13:26:29;;;;;;;5.55;1.45;;;;;;;11.32;56.82;99367.09;5076603;28;20063;-66
2021/10/18 13:29:14;;;;;;;3.63;1.17;;;;;;;11.29;56.56;99364.56;5071177;28;20135;-68
2021/10/18 13:31:59;;;;;;;3.28;1.23;;;;;;;11.06;55.06;99364.34;5079114;28;20535;-65
2021/10/18 13:34:45;;;;;;;3.58;0.93;;;;;;;10.75;54.62;99362.56;5046186;28;20071;-65
2021/10/18 13:37:29;;;;;;;5.25;1.48;;;;;;;10.44;54.82;99343.09;5067914;28;20462;-73
2021/10/18 13:40:17;;;;;;;7.32;1.75;;;;;;;10.22;55.15;99363.09;5054558;28;20053;-65
2021/10/18 13:43:05;;;;;;;2.72;1.10;;;;;;;10.19;55.29;99365.81;5052926;28;20051;-66
2021/10/18 13:45:49;;;;;;;5.55;1.48;;;;;;;10.02;55.37;99363.56;5066699;28;20064;-64
2021/10/18 13:48:34;;;;;;;4.50;1.75;;;;;;;9.97;55.55;99357.50;5060187;28;20201;-65
2021/10/18 13:51:19;;;;;;;5.30;2.65;;;;;;;9.85;55.88;99365.72;5057925;28;20071;-74
2021/10/18 13:54:06;;;;;;;6.57;3.30;;;;;;;9.81;56.68;99373.78;5032527;28;20044;-65
2021/10/18 13:56:51;;;;;;;7.32;2.60;;;;;;;9.67;57.68;99373.22;5053250;28;20135;-66
2021/10/18 13:59:36;;;;;;;5.75;2.35;;;;;;;9.50;58.45;99376.28;5056494;28;20109;-65
2021/10/18 14:02:21;;;;;;;11.88;5.43;;;;;;;9.51;60.06;99380.66;5059765;28;20071;-67
2021/10/18 14:05:07;;;;;;;8.02;3.30;;;;;;;9.55;61.15;99382.31;5053928;28;20365;-68
2021/10/18 14:07:52;;;;;;;9.45;2.80;;;;;;;9.53;61.93;99384.13;5052799;28;20052;-66
2021/10/18 14:10:38;;;;;;;13.45;3.38;;;;;;;9.57;62.27;99377.00;5051034;28;20105;-72
2021/10/18 14:13:22;;;;;;;6.88;2.33;;;;;;;9.42;63.29;99378.22;5046941;28;20063;-65
2021/10/18 14:16:07;;;;;;;5.90;2.30;;;;;;;9.24;64.49;99382.13;5060863;28;20055;-65